sensor_id;sensor_type;location;lat;lon;timestamp;pressure;altitude;pressure_sealevel;temperature;humidity
72308;BME280;60257;42.638;23.376;2023-09-12T00:02:06;94815.50;;;14.11;62.68
72308;BME280;60257;42.638;23.376;2023-09-12T00:04:31;94817.47;;;14.11;62.70
72308;BME280;60257;42.638;23.376;2023-09-12T00:07:00;94807.91;;;14.05;62.43
72308;BME280;60257;42.638;23.376;2023-09-12T00:09:25;94817.75;;;14.06;62.75
72308;BME280;60257;42.638;23.376;2023-09-12T00:11:51;94821.75;;;14.08;62.82
72308;BME280;60257;42.638;23.376;2023-09-12T00:14:17;94819.72;;;14.05;63.14
72308;BME280;60257;42.638;23.376;2023-09-12T00:16:43;94822.13;;;14.07;63.74
72308;BME280;60257;42.638;23.376;2023-09-12T00:19:08;94819.38;;;14.07;64.02
72308;BME280;60257;42.638;23.376;2023-09-12T00:21:34;94820.16;;;14.07;64.78
72308;BME280;60257;42.638;23.376;2023-09-12T00:23:59;94822.47;;;14.05;65.07
72308;BME280;60257;42.638;23.376;2023-09-12T00:26:25;94824.78;;;14.03;65.66
72308;BME280;60257;42.638;23.376;2023-09-12T00:28:50;94819.94;;;13.97;66.25
72308;BME280;60257;42.638;23.376;2023-09-12T00:31:16;94838.75;;;13.91;67.55
72308;BME280;60257;42.638;23.376;2023-09-12T00:33:41;94828.44;;;13.88;68.03
72308;BME280;60257;42.638;23.376;2023-09-12T00:36:07;94836.13;;;13.79;68.66
72308;BME280;60257;42.638;23.376;2023-09-12T00:38:33;94823.88;;;13.76;68.64
72308;BME280;60257;42.638;23.376;2023-09-12T00:40:59;94829.75;;;13.75;68.69
72308;BME280;60257;42.638;23.376;2023-09-12T00:43:25;94825.41;;;13.74;69.09
72308;BME280;60257;42.638;23.376;2023-09-12T00:45:50;94825.84;;;13.76;68.81
72308;BME280;60257;42.638;23.376;2023-09-12T00:48:16;94836.44;;;13.74;69.08
72308;BME280;60257;42.638;23.376;2023-09-12T00:50:43;94841.09;;;13.70;69.05
72308;BME280;60257;42.638;23.376;2023-09-12T00:53:10;94837.59;;;13.73;68.19
72308;BME280;60257;42.638;23.376;2023-09-12T00:55:37;94838.75;;;13.72;67.86
72308;BME280;60257;42.638;23.376;2023-09-12T00:58:06;94831.13;;;13.65;67.73
72308;BME280;60257;42.638;23.376;2023-09-12T01:00:33;94837.78;;;13.64;67.65
72308;BME280;60257;42.638;23.376;2023-09-12T01:02:58;94837.66;;;13.57;67.66
72308;BME280;60257;42.638;23.376;2023-09-12T01:05:24;94835.25;;;13.56;68.11
72308;BME280;60257;42.638;23.376;2023-09-12T01:07:49;94848.22;;;13.55;68.35
72308;BME280;60257;42.638;23.376;2023-09-12T01:10:15;94844.09;;;13.45;68.33
72308;BME280;60257;42.638;23.376;2023-09-12T01:12:41;94835.25;;;13.36;68.33
72308;BME280;60257;42.638;23.376;2023-09-12T01:15:07;94844.75;;;13.39;68.66
72308;BME280;60257;42.638;23.376;2023-09-12T01:17:43;94850.25;;;13.39;68.16
72308;BME280;60257;42.638;23.376;2023-09-12T01:20:28;94852.56;;;13.37;68.23
72308;BME280;60257;42.638;23.376;2023-09-12T01:28:45;94850.00;;;13.28;67.68
72308;BME280;60257;42.638;23.376;2023-09-12T01:31:12;94861.38;;;13.27;67.87
72308;BME280;60257;42.638;23.376;2023-09-12T01:33:38;94850.22;;;13.20;67.79
72308;BME280;60257;42.638;23.376;2023-09-12T01:36:04;94858.91;;;13.22;67.99
72308;BME280;60257;42.638;23.376;2023-09-12T01:38:30;94861.56;;;13.18;67.73
72308;BME280;60257;42.638;23.376;2023-09-12T01:40:55;94850.56;;;13.18;67.95
72308;BME280;60257;42.638;23.376;2023-09-12T01:43:23;94866.72;;;13.20;67.70
72308;BME280;60257;42.638;23.376;2023-09-12T01:45:54;94865.59;;;13.21;68.03
72308;BME280;60257;42.638;23.376;2023-09-12T01:48:23;94864.34;;;13.18;68.09
72308;BME280;60257;42.638;23.376;2023-09-12T01:50:49;94864.69;;;13.17;68.25
72308;BME280;60257;42.638;23.376;2023-09-12T01:53:16;94858.75;;;13.15;68.39
72308;BME280;60257;42.638;23.376;2023-09-12T01:55:43;94861.16;;;13.16;68.43
72308;BME280;60257;42.638;23.376;2023-09-12T01:58:11;94866.53;;;13.13;68.53
72308;BME280;60257;42.638;23.376;2023-09-12T02:00:37;94862.88;;;13.08;69.10
72308;BME280;60257;42.638;23.376;2023-09-12T02:03:03;94865.56;;;13.05;68.67
72308;BME280;60257;42.638;23.376;2023-09-12T02:05:29;94863.91;;;13.00;68.54
72308;BME280;60257;42.638;23.376;2023-09-12T02:07:54;94866.47;;;12.93;68.99
72308;BME280;60257;42.638;23.376;2023-09-12T02:10:20;94870.03;;;12.94;68.93
72308;BME280;60257;42.638;23.376;2023-09-12T02:12:45;94859.38;;;12.92;68.99
72308;BME280;60257;42.638;23.376;2023-09-12T02:15:11;94867.53;;;12.89;69.52
72308;BME280;60257;42.638;23.376;2023-09-12T02:17:37;94869.94;;;12.90;69.33
72308;BME280;60257;42.638;23.376;2023-09-12T02:20:08;94864.63;;;12.82;69.93
72308;BME280;60257;42.638;23.376;2023-09-12T02:22:34;94867.28;;;12.78;70.05
72308;BME280;60257;42.638;23.376;2023-09-12T02:24:59;94868.06;;;12.79;70.15
72308;BME280;60257;42.638;23.376;2023-09-12T02:27:25;94861.59;;;12.71;70.43
72308;BME280;60257;42.638;23.376;2023-09-12T02:29:50;94873.84;;;12.73;70.53
72308;BME280;60257;42.638;23.376;2023-09-12T02:32:15;94872.19;;;12.69;71.27
72308;BME280;60257;42.638;23.376;2023-09-12T02:34:41;94864.91;;;12.61;71.42
72308;BME280;60257;42.638;23.376;2023-09-12T02:37:07;94872.78;;;12.62;71.67
72308;BME280;60257;42.638;23.376;2023-09-12T02:39:32;94871.91;;;12.58;71.69
72308;BME280;60257;42.638;23.376;2023-09-12T02:41:57;94868.69;;;12.56;71.94
72308;BME280;60257;42.638;23.376;2023-09-12T02:44:23;94867.38;;;12.50;72.58
72308;BME280;60257;42.638;23.376;2023-09-12T02:46:48;94873.31;;;12.52;72.92
72308;BME280;60257;42.638;23.376;2023-09-12T02:49:14;94874.03;;;12.49;72.89
72308;BME280;60257;42.638;23.376;2023-09-12T02:51:39;94878.28;;;12.47;72.84
72308;BME280;60257;42.638;23.376;2023-09-12T02:54:05;94877.41;;;12.43;72.83
72308;BME280;60257;42.638;23.376;2023-09-12T02:56:31;94871.38;;;12.37;73.13
72308;BME280;60257;42.638;23.376;2023-09-12T02:58:56;94869.84;;;12.40;73.51
72308;BME280;60257;42.638;23.376;2023-09-12T03:01:22;94872.97;;;12.38;73.30
72308;BME280;60257;42.638;23.376;2023-09-12T03:03:48;94872.16;;;12.38;73.38
72308;BME280;60257;42.638;23.376;2023-09-12T03:06:15;94870.09;;;12.34;73.30
72308;BME280;60257;42.638;23.376;2023-09-12T03:08:41;94872.78;;;12.31;73.75
72308;BME280;60257;42.638;23.376;2023-09-12T03:11:07;94871.59;;;12.32;73.13
72308;BME280;60257;42.638;23.376;2023-09-12T03:13:33;94872.31;;;12.29;72.64
72308;BME280;60257;42.638;23.376;2023-09-12T03:15:59;94873.94;;;12.30;72.75
72308;BME280;60257;42.638;23.376;2023-09-12T03:18:25;94871.97;;;12.30;72.31
72308;BME280;60257;42.638;23.376;2023-09-12T03:20:51;94868.59;;;12.21;72.64
72308;BME280;60257;42.638;23.376;2023-09-12T03:23:18;94867.53;;;12.26;72.78
72308;BME280;60257;42.638;23.376;2023-09-12T03:25:44;94878.88;;;12.24;72.95
72308;BME280;60257;42.638;23.376;2023-09-12T03:28:09;94878.44;;;12.22;72.78
72308;BME280;60257;42.638;23.376;2023-09-12T03:30:36;94875.22;;;12.20;72.84
72308;BME280;60257;42.638;23.376;2023-09-12T03:33:02;94881.53;;;12.21;72.57
72308;BME280;60257;42.638;23.376;2023-09-12T03:35:29;94887.72;;;12.18;71.88
72308;BME280;60257;42.638;23.376;2023-09-12T03:37:55;94883.38;;;12.17;72.05
72308;BME280;60257;42.638;23.376;2023-09-12T03:40:20;94880.53;;;12.13;72.87
72308;BME280;60257;42.638;23.376;2023-09-12T03:42:46;94883.63;;;12.12;72.42
72308;BME280;60257;42.638;23.376;2023-09-12T03:45:11;94886.28;;;12.08;72.39
72308;BME280;60257;42.638;23.376;2023-09-12T03:47:37;94883.09;;;12.06;72.04
72308;BME280;60257;42.638;23.376;2023-09-12T03:50:03;94887.06;;;12.09;72.63
72308;BME280;60257;42.638;23.376;2023-09-12T03:52:29;94885.50;;;12.08;72.16
72308;BME280;60257;42.638;23.376;2023-09-12T03:54:55;94885.50;;;12.08;71.63
72308;BME280;60257;42.638;23.376;2023-09-12T03:57:21;94898.78;;;12.06;70.98
72308;BME280;60257;42.638;23.376;2023-09-12T03:59:46;94889.75;;;12.05;70.95
72308;BME280;60257;42.638;23.376;2023-09-12T04:02:12;94893.03;;;12.11;70.41
72308;BME280;60257;42.638;23.376;2023-09-12T04:04:38;94894.63;;;12.12;70.04
72308;BME280;60257;42.638;23.376;2023-09-12T04:07:04;94893.50;;;12.13;70.26
72308;BME280;60257;42.638;23.376;2023-09-12T04:09:29;94898.72;;;12.18;70.13
72308;BME280;60257;42.638;23.376;2023-09-12T04:11:54;94898.03;;;12.21;70.16
72308;BME280;60257;42.638;23.376;2023-09-12T04:14:21;94888.19;;;12.20;70.45
72308;BME280;60257;42.638;23.376;2023-09-12T04:16:46;94899.19;;;12.20;70.12
72308;BME280;60257;42.638;23.376;2023-09-12T04:19:14;94888.19;;;12.20;70.47
72308;BME280;60257;42.638;23.376;2023-09-12T04:21:40;94888.97;;;12.20;70.83
72308;BME280;60257;42.638;23.376;2023-09-12T04:24:06;94897.56;;;12.19;70.82
72308;BME280;60257;42.638;23.376;2023-09-12T04:26:32;94882.50;;;12.13;70.79
72308;BME280;60257;42.638;23.376;2023-09-12T04:28:58;94891.38;;;12.22;70.67
72308;BME280;60257;42.638;23.376;2023-09-12T04:31:24;94898.91;;;12.25;70.93
72308;BME280;60257;42.638;23.376;2023-09-12T04:33:53;94895.81;;;12.26;70.72
72308;BME280;60257;42.638;23.376;2023-09-12T04:36:19;94876.66;;;12.14;70.66
72308;BME280;60257;42.638;23.376;2023-09-12T04:38:45;94894.78;;;12.31;70.91
72308;BME280;60257;42.638;23.376;2023-09-12T04:41:13;94906.22;;;12.33;70.98
72308;BME280;60257;42.638;23.376;2023-09-12T04:43:42;94903.56;;;12.37;70.52
72308;BME280;60257;42.638;23.376;2023-09-12T04:46:08;94899.28;;;12.39;70.38
72308;BME280;60257;42.638;23.376;2023-09-12T04:48:33;94905.78;;;12.47;70.10
72308;BME280;60257;42.638;23.376;2023-09-12T04:50:59;94891.69;;;12.48;70.29
72308;BME280;60257;42.638;23.376;2023-09-12T04:53:24;94902.16;;;12.58;70.27
72308;BME280;60257;42.638;23.376;2023-09-12T04:55:53;94907.50;;;12.67;69.75
72308;BME280;60257;42.638;23.376;2023-09-12T04:58:19;94903.69;;;12.71;69.39
72308;BME280;60257;42.638;23.376;2023-09-12T05:00:45;94896.06;;;12.81;68.48
72308;BME280;60257;42.638;23.376;2023-09-12T05:03:12;94904.94;;;12.90;68.42
72308;BME280;60257;42.638;23.376;2023-09-12T05:05:37;94896.41;;;12.95;68.67
72308;BME280;60257;42.638;23.376;2023-09-12T05:08:03;94902.53;;;13.04;68.37
72308;BME280;60257;42.638;23.376;2023-09-12T05:10:29;94902.69;;;13.11;68.05
72308;BME280;60257;42.638;23.376;2023-09-12T05:12:55;94904.03;;;13.17;68.13
72308;BME280;60257;42.638;23.376;2023-09-12T05:15:21;94904.19;;;13.24;67.54
72308;BME280;60257;42.638;23.376;2023-09-12T05:17:46;94904.81;;;13.33;67.45
72308;BME280;60257;42.638;23.376;2023-09-12T05:20:11;94897.91;;;13.39;67.01
72308;BME280;60257;42.638;23.376;2023-09-12T05:22:37;94903.97;;;13.48;66.98
72308;BME280;60257;42.638;23.376;2023-09-12T05:25:03;94904.94;;;13.56;67.24
72308;BME280;60257;42.638;23.376;2023-09-12T05:27:29;94900.38;;;13.64;67.00
72308;BME280;60257;42.638;23.376;2023-09-12T05:29:54;94911.94;;;13.69;66.64
72308;BME280;60257;42.638;23.376;2023-09-12T05:32:19;94899.81;;;13.74;66.03
72308;BME280;60257;42.638;23.376;2023-09-12T05:34:45;94911.59;;;13.90;65.19
72308;BME280;60257;42.638;23.376;2023-09-12T05:37:11;94914.03;;;13.95;64.88
72308;BME280;60257;42.638;23.376;2023-09-12T05:39:36;94915.88;;;14.07;64.89
72308;BME280;60257;42.638;23.376;2023-09-12T05:42:02;94900.19;;;14.11;64.39
72308;BME280;60257;42.638;23.376;2023-09-12T05:44:27;94915.50;;;14.27;64.01
72308;BME280;60257;42.638;23.376;2023-09-12T05:46:53;94911.34;;;14.37;63.81
72308;BME280;60257;42.638;23.376;2023-09-12T05:49:19;94921.75;;;14.44;63.11
72308;BME280;60257;42.638;23.376;2023-09-12T05:51:44;94912.81;;;14.50;63.04
72308;BME280;60257;42.638;23.376;2023-09-12T05:54:11;94921.66;;;14.59;62.25
72308;BME280;60257;42.638;23.376;2023-09-12T05:56:39;94918.66;;;14.68;62.43
72308;BME280;60257;42.638;23.376;2023-09-12T05:59:06;94921.13;;;14.73;62.48
72308;BME280;60257;42.638;23.376;2023-09-12T06:01:31;94911.81;;;14.81;62.45
72308;BME280;60257;42.638;23.376;2023-09-12T06:03:57;94909.59;;;14.90;62.42
72308;BME280;60257;42.638;23.376;2023-09-12T06:06:22;94919.97;;;14.97;61.74
72308;BME280;60257;42.638;23.376;2023-09-12T06:08:48;94915.00;;;15.06;61.91
72308;BME280;60257;42.638;23.376;2023-09-12T06:11:13;94912.72;;;15.12;61.52
72308;BME280;60257;42.638;23.376;2023-09-12T06:13:39;94910.13;;;15.22;60.96
72308;BME280;60257;42.638;23.376;2023-09-12T06:16:05;94894.72;;;15.21;60.84
72308;BME280;60257;42.638;23.376;2023-09-12T06:18:33;94923.47;;;15.43;60.70
72308;BME280;60257;42.638;23.376;2023-09-12T06:20:59;94922.38;;;15.48;60.04
72308;BME280;60257;42.638;23.376;2023-09-12T06:23:29;94920.53;;;15.55;59.85
72308;BME280;60257;42.638;23.376;2023-09-12T06:25:55;94924.94;;;15.60;59.53
72308;BME280;60257;42.638;23.376;2023-09-12T06:28:28;94931.75;;;15.66;59.50
72308;BME280;60257;42.638;23.376;2023-09-12T06:30:54;94928.34;;;15.76;60.03
72308;BME280;60257;42.638;23.376;2023-09-12T06:33:20;94937.53;;;15.84;58.91
72308;BME280;60257;42.638;23.376;2023-09-12T06:35:51;94935.31;;;15.93;58.36
72308;BME280;60257;42.638;23.376;2023-09-12T06:38:18;94936.63;;;16.02;57.82
72308;BME280;60257;42.638;23.376;2023-09-12T06:40:44;94935.13;;;16.08;57.19
72308;BME280;60257;42.638;23.376;2023-09-12T06:43:10;94938.78;;;16.16;56.83
72308;BME280;60257;42.638;23.376;2023-09-12T06:45:36;94930.97;;;16.25;56.79
72308;BME280;60257;42.638;23.376;2023-09-12T06:48:03;94931.06;;;16.32;56.54
72308;BME280;60257;42.638;23.376;2023-09-12T06:50:29;94935.53;;;16.40;56.17
72308;BME280;60257;42.638;23.376;2023-09-12T06:52:54;94933.63;;;16.48;55.80
72308;BME280;60257;42.638;23.376;2023-09-12T06:55:20;94935.31;;;16.56;55.69
72308;BME280;60257;42.638;23.376;2023-09-12T06:57:46;94930.69;;;16.64;55.61
72308;BME280;60257;42.638;23.376;2023-09-12T07:00:12;94930.41;;;16.76;54.57
72308;BME280;60257;42.638;23.376;2023-09-12T07:02:38;94933.22;;;16.79;53.87
72308;BME280;60257;42.638;23.376;2023-09-12T07:05:04;94937.22;;;16.85;53.49
72308;BME280;60257;42.638;23.376;2023-09-12T07:07:30;94932.56;;;16.97;53.21
72308;BME280;60257;42.638;23.376;2023-09-12T07:09:56;94933.44;;;17.04;53.17
72308;BME280;60257;42.638;23.376;2023-09-12T07:12:22;94937.88;;;17.12;52.14
72308;BME280;60257;42.638;23.376;2023-09-12T07:14:47;94938.72;;;17.20;51.90
72308;BME280;60257;42.638;23.376;2023-09-12T07:17:14;94930.03;;;17.21;50.84
72308;BME280;60257;42.638;23.376;2023-09-12T07:19:39;94936.88;;;17.35;51.88
72308;BME280;60257;42.638;23.376;2023-09-12T07:22:05;94940.09;;;17.40;50.89
72308;BME280;60257;42.638;23.376;2023-09-12T07:24:31;94941.34;;;17.46;50.27
72308;BME280;60257;42.638;23.376;2023-09-12T07:26:56;94929.50;;;17.53;50.08
72308;BME280;60257;42.638;23.376;2023-09-12T07:29:23;94941.91;;;17.66;50.03
72308;BME280;60257;42.638;23.376;2023-09-12T07:31:52;94936.03;;;17.75;49.37
72308;BME280;60257;42.638;23.376;2023-09-12T07:34:19;94941.66;;;17.85;48.09
72308;BME280;60257;42.638;23.376;2023-09-12T07:36:44;94933.75;;;17.91;48.14
72308;BME280;60257;42.638;23.376;2023-09-12T07:39:09;94942.53;;;18.00;47.94
72308;BME280;60257;42.638;23.376;2023-09-12T07:41:36;94937.44;;;18.13;48.62
72308;BME280;60257;42.638;23.376;2023-09-12T07:44:01;94941.47;;;18.22;48.14
72308;BME280;60257;42.638;23.376;2023-09-12T07:46:30;94935.97;;;18.33;48.72
72308;BME280;60257;42.638;23.376;2023-09-12T07:48:56;94934.03;;;18.40;47.84
72308;BME280;60257;42.638;23.376;2023-09-12T07:51:22;94933.25;;;18.51;48.42
72308;BME280;60257;42.638;23.376;2023-09-12T07:53:48;94929.75;;;18.57;47.02
72308;BME280;60257;42.638;23.376;2023-09-12T07:56:14;94926.19;;;18.64;46.31
72308;BME280;60257;42.638;23.376;2023-09-12T07:58:39;94926.22;;;18.71;46.29
72308;BME280;60257;42.638;23.376;2023-09-12T08:01:09;94928.63;;;18.83;47.12
72308;BME280;60257;42.638;23.376;2023-09-12T08:03:36;94927.47;;;18.88;46.75
72308;BME280;60257;42.638;23.376;2023-09-12T08:06:02;94919.94;;;18.95;46.90
72308;BME280;60257;42.638;23.376;2023-09-12T08:08:29;94921.13;;;19.05;45.30
72308;BME280;60257;42.638;23.376;2023-09-12T08:10:54;94921.53;;;19.14;45.76
72308;BME280;60257;42.638;23.376;2023-09-12T08:13:20;94928.69;;;19.22;45.15
72308;BME280;60257;42.638;23.376;2023-09-12T08:15:45;94925.13;;;19.25;45.17
72308;BME280;60257;42.638;23.376;2023-09-12T08:18:10;94933.88;;;19.34;45.07
72308;BME280;60257;42.638;23.376;2023-09-12T08:20:36;94925.13;;;19.39;45.65
72308;BME280;60257;42.638;23.376;2023-09-12T08:23:03;94932.31;;;19.47;45.57
72308;BME280;60257;42.638;23.376;2023-09-12T08:25:28;94925.16;;;19.53;44.81
72308;BME280;60257;42.638;23.376;2023-09-12T08:27:54;94926.34;;;19.56;44.45
72308;BME280;60257;42.638;23.376;2023-09-12T08:30:19;94927.94;;;19.57;43.87
72308;BME280;60257;42.638;23.376;2023-09-12T08:32:45;94929.13;;;19.70;43.74
72308;BME280;60257;42.638;23.376;2023-09-12T08:35:12;94927.13;;;19.78;44.22
72308;BME280;60257;42.638;23.376;2023-09-12T08:37:39;94922.75;;;19.84;43.93
72308;BME280;60257;42.638;23.376;2023-09-12T08:40:06;94920.75;;;19.95;43.57
72308;BME280;60257;42.638;23.376;2023-09-12T08:42:39;94912.78;;;20.04;43.47
72308;BME280;60257;42.638;23.376;2023-09-12T08:45:14;94913.13;;;20.13;42.76
72308;BME280;60257;42.638;23.376;2023-09-12T08:47:41;94909.56;;;20.16;42.04
72308;BME280;60257;42.638;23.376;2023-09-12T08:50:12;94912.31;;;20.23;42.03
72308;BME280;60257;42.638;23.376;2023-09-12T08:52:44;94905.91;;;20.30;41.58
72308;BME280;60257;42.638;23.376;2023-09-12T08:55:11;94904.72;;;20.38;41.81
72308;BME280;60257;42.638;23.376;2023-09-12T08:57:42;94909.50;;;20.41;41.42
72308;BME280;60257;42.638;23.376;2023-09-12T09:00:08;94910.25;;;20.45;41.51
72308;BME280;60257;42.638;23.376;2023-09-12T09:02:40;94907.44;;;20.52;41.24
72308;BME280;60257;42.638;23.376;2023-09-12T09:05:07;94906.66;;;20.55;41.18
72308;BME280;60257;42.638;23.376;2023-09-12T09:07:38;94906.97;;;20.71;41.35
72308;BME280;60257;42.638;23.376;2023-09-12T09:10:06;94901.75;;;20.77;40.50
72308;BME280;60257;42.638;23.376;2023-09-12T09:12:32;94906.09;;;20.85;40.28
72308;BME280;60257;42.638;23.376;2023-09-12T09:14:58;94905.25;;;20.95;40.31
72308;BME280;60257;42.638;23.376;2023-09-12T09:17:25;94898.84;;;20.98;40.19
72308;BME280;60257;42.638;23.376;2023-09-12T09:19:51;94897.25;;;21.01;39.92
72308;BME280;60257;42.638;23.376;2023-09-12T09:22:16;94896.78;;;21.09;39.80
72308;BME280;60257;42.638;23.376;2023-09-12T09:24:42;94896.34;;;21.14;40.09
72308;BME280;60257;42.638;23.376;2023-09-12T09:27:07;94892.28;;;21.30;39.55
72308;BME280;60257;42.638;23.376;2023-09-12T09:29:46;94891.44;;;21.36;38.42
72308;BME280;60257;42.638;23.376;2023-09-12T09:32:17;94894.59;;;21.42;38.25
72308;BME280;60257;42.638;23.376;2023-09-12T09:34:43;94887.81;;;21.43;38.72
72308;BME280;60257;42.638;23.376;2023-09-12T09:37:09;94877.78;;;21.49;38.90
72308;BME280;60257;42.638;23.376;2023-09-12T09:39:35;94878.53;;;21.53;38.19
72308;BME280;60257;42.638;23.376;2023-09-12T09:42:01;94884.09;;;21.57;37.71
72308;BME280;60257;42.638;23.376;2023-09-12T09:44:27;94879.66;;;21.63;37.59
72308;BME280;60257;42.638;23.376;2023-09-12T09:47:02;94882.75;;;21.72;37.48
72308;BME280;60257;42.638;23.376;2023-09-12T09:49:30;94874.38;;;21.75;36.30
72308;BME280;60257;42.638;23.376;2023-09-12T09:51:56;94869.94;;;21.78;36.88
72308;BME280;60257;42.638;23.376;2023-09-12T09:54:25;94879.00;;;21.89;37.01
72308;BME280;60257;42.638;23.376;2023-09-12T09:56:55;94867.75;;;21.96;35.71
72308;BME280;60257;42.638;23.376;2023-09-12T09:59:22;94872.91;;;22.01;35.85
72308;BME280;60257;42.638;23.376;2023-09-12T10:01:50;94862.06;;;22.07;35.72
72308;BME280;60257;42.638;23.376;2023-09-12T10:04:18;94865.16;;;22.16;35.32
72308;BME280;60257;42.638;23.376;2023-09-12T10:06:46;94856.69;;;22.26;35.29
72308;BME280;60257;42.638;23.376;2023-09-12T10:09:16;94855.38;;;22.35;34.73
72308;BME280;60257;42.638;23.376;2023-09-12T10:11:43;94856.91;;;22.39;35.38
72308;BME280;60257;42.638;23.376;2023-09-12T10:14:09;94856.41;;;22.48;34.55
72308;BME280;60257;42.638;23.376;2023-09-12T10:16:45;94851.91;;;22.57;34.38
72308;BME280;60257;42.638;23.376;2023-09-12T10:19:20;94847.00;;;22.65;34.14
72308;BME280;60257;42.638;23.376;2023-09-12T10:22:03;94844.44;;;22.78;34.19
72308;BME280;60257;42.638;23.376;2023-09-12T10:24:33;94847.47;;;22.90;33.49
72308;BME280;60257;42.638;23.376;2023-09-12T10:27:01;94834.19;;;22.98;33.41
72308;BME280;60257;42.638;23.376;2023-09-12T10:29:28;94846.41;;;23.08;33.07
72308;BME280;60257;42.638;23.376;2023-09-12T10:31:53;94842.78;;;23.11;33.29
72308;BME280;60257;42.638;23.376;2023-09-12T10:34:20;94841.44;;;23.19;32.86
72308;BME280;60257;42.638;23.376;2023-09-12T10:36:47;94838.09;;;23.27;33.24
72308;BME280;60257;42.638;23.376;2023-09-12T10:39:15;94834.09;;;23.28;33.18
72308;BME280;60257;42.638;23.376;2023-09-12T10:41:41;94833.59;;;23.33;33.38
72308;BME280;60257;42.638;23.376;2023-09-12T10:44:10;94834.28;;;23.41;33.12
72308;BME280;60257;42.638;23.376;2023-09-12T10:46:39;94825.88;;;23.41;33.31
72308;BME280;60257;42.638;23.376;2023-09-12T10:49:09;94830.56;;;23.51;32.94
72308;BME280;60257;42.638;23.376;2023-09-12T10:51:39;94819.59;;;23.60;33.23
72308;BME280;60257;42.638;23.376;2023-09-12T10:54:06;94819.88;;;23.66;32.98
72308;BME280;60257;42.638;23.376;2023-09-12T10:56:33;94824.16;;;23.74;33.46
72308;BME280;60257;42.638;23.376;2023-09-12T11:01:32;94812.25;;;23.90;33.54
72308;BME280;60257;42.638;23.376;2023-09-12T11:03:58;94805.28;;;23.98;33.20
72308;BME280;60257;42.638;23.376;2023-09-12T11:06:30;94802.63;;;24.10;33.18
72308;BME280;60257;42.638;23.376;2023-09-12T11:11:43;94805.28;;;24.17;32.77
72308;BME280;60257;42.638;23.376;2023-09-12T11:14:09;94801.25;;;24.22;32.42
72308;BME280;60257;42.638;23.376;2023-09-12T11:16:35;94802.69;;;24.30;32.67
72308;BME280;60257;42.638;23.376;2023-09-12T11:21:48;94788.34;;;24.44;32.56
72308;BME280;60257;42.638;23.376;2023-09-12T11:24:15;94785.41;;;24.32;31.54
72308;BME280;60257;42.638;23.376;2023-09-12T11:26:59;94789.06;;;24.48;32.43
72308;BME280;60257;42.638;23.376;2023-09-12T11:29:34;94788.03;;;24.59;31.97
72308;BME280;60257;42.638;23.376;2023-09-12T11:32:00;94780.25;;;24.66;31.36
72308;BME280;60257;42.638;23.376;2023-09-12T11:34:29;94773.25;;;24.74;31.15
72308;BME280;60257;42.638;23.376;2023-09-12T11:36:57;94772.84;;;24.76;31.15
72308;BME280;60257;42.638;23.376;2023-09-12T11:39:27;94773.72;;;24.89;30.81
72308;BME280;60257;42.638;23.376;2023-09-12T11:41:55;94767.97;;;24.96;31.08
72308;BME280;60257;42.638;23.376;2023-09-12T11:44:21;94771.22;;;25.11;30.47
72308;BME280;60257;42.638;23.376;2023-09-12T11:46:51;94761.13;;;25.13;30.29
72308;BME280;60257;42.638;23.376;2023-09-12T11:49:18;94761.50;;;25.32;30.09
72308;BME280;60257;42.638;23.376;2023-09-12T11:51:52;94755.34;;;25.37;29.73
72308;BME280;60257;42.638;23.376;2023-09-12T11:54:20;94765.34;;;25.38;28.74
72308;BME280;60257;42.638;23.376;2023-09-12T11:56:49;94754.13;;;25.38;28.35
72308;BME280;60257;42.638;23.376;2023-09-12T11:59:31;94756.31;;;25.46;29.60
72308;BME280;60257;42.638;23.376;2023-09-12T12:01:56;94756.13;;;25.53;29.52
72308;BME280;60257;42.638;23.376;2023-09-12T12:04:23;94748.91;;;25.52;28.18
72308;BME280;60257;42.638;23.376;2023-09-12T12:06:52;94747.88;;;25.62;28.41
72308;BME280;60257;42.638;23.376;2023-09-12T12:09:18;94744.16;;;25.65;28.53
72308;BME280;60257;42.638;23.376;2023-09-12T12:11:45;94748.38;;;25.74;28.69
72308;BME280;60257;42.638;23.376;2023-09-12T12:14:14;94744.13;;;25.82;29.12
72308;BME280;60257;42.638;23.376;2023-09-12T12:16:44;94741.13;;;25.89;29.06
72308;BME280;60257;42.638;23.376;2023-09-12T12:19:11;94744.44;;;26.00;28.20
72308;BME280;60257;42.638;23.376;2023-09-12T12:21:41;94744.59;;;26.09;28.35
72308;BME280;60257;42.638;23.376;2023-09-12T12:24:14;94735.47;;;26.18;28.04
72308;BME280;60257;42.638;23.376;2023-09-12T12:26:41;94739.63;;;26.13;27.59
72308;BME280;60257;42.638;23.376;2023-09-12T12:29:09;94729.97;;;26.14;28.19
72308;BME280;60257;42.638;23.376;2023-09-12T12:31:35;94740.06;;;26.12;27.85
72308;BME280;60257;42.638;23.376;2023-09-12T12:34:01;94734.56;;;26.08;28.42
72308;BME280;60257;42.638;23.376;2023-09-12T12:36:26;94726.25;;;26.17;29.39
72308;BME280;60257;42.638;23.376;2023-09-12T12:38:52;94738.09;;;26.25;28.50
72308;BME280;60257;42.638;23.376;2023-09-12T12:41:29;94731.81;;;26.33;28.76
72308;BME280;60257;42.638;23.376;2023-09-12T12:43:57;94730.50;;;26.38;28.21
72308;BME280;60257;42.638;23.376;2023-09-12T12:46:26;94727.91;;;26.43;28.33
72308;BME280;60257;42.638;23.376;2023-09-12T12:48:52;94724.97;;;26.34;27.92
72308;BME280;60257;42.638;23.376;2023-09-12T12:53:52;94719.56;;;26.27;28.07
72308;BME280;60257;42.638;23.376;2023-09-12T12:56:21;94718.69;;;26.30;27.94
72308;BME280;60257;42.638;23.376;2023-09-12T12:58:58;94721.38;;;26.34;28.25
72308;BME280;60257;42.638;23.376;2023-09-12T13:01:25;94712.63;;;26.32;27.92
72308;BME280;60257;42.638;23.376;2023-09-12T13:03:51;94710.59;;;26.32;28.20
72308;BME280;60257;42.638;23.376;2023-09-12T13:06:18;94714.97;;;26.33;28.33